createdAt,value
2022-10-31T00:01:37.655Z,99221.60
2022-10-31T00:04:05.353Z,99221.40
2022-10-31T00:06:32.044Z,99221.60
2022-10-31T00:09:04.794Z,99222.40
2022-10-31T00:11:31.338Z,99223.80
2022-10-31T00:14:00.398Z,99228.20
2022-10-31T00:16:28.884Z,99226.80
2022-10-31T00:19:05.188Z,99227.40
2022-10-31T00:21:32.771Z,99225.40
2022-10-31T00:24:00.823Z,99228.80
2022-10-31T00:26:32.137Z,99230.60
2022-10-31T00:29:00.312Z,99235.60
2022-10-31T00:31:29.205Z,99236.20
2022-10-31T00:33:56.096Z,99235.20
2022-10-31T00:36:22.505Z,99237.20
2022-10-31T00:38:49.380Z,99233.40
2022-10-31T00:41:18.424Z,99238.40
2022-10-31T00:43:45.218Z,99242.80
2022-10-31T00:46:13.586Z,99237.80
2022-10-31T00:48:40.360Z,99237.00
2022-10-31T00:51:07.418Z,99236.20
2022-10-31T00:53:34.254Z,99239.40
2022-10-31T00:56:00.709Z,99244.40
2022-10-31T00:58:27.139Z,99242.20
2022-10-31T01:00:56.906Z,99246.00
2022-10-31T01:03:27.585Z,99240.80
2022-10-31T01:06:00.389Z,99242.40
2022-10-31T01:08:27.230Z,99240.20
2022-10-31T01:11:08.540Z,99236.40
2022-10-31T01:13:36.207Z,99242.80
2022-10-31T01:16:05.578Z,99240.00
2022-10-31T01:18:32.075Z,99240.00
2022-10-31T01:21:05.702Z,99238.20
2022-10-31T01:23:33.095Z,99242.20
2022-10-31T01:26:25.413Z,99241.60
2022-10-31T01:28:55.737Z,99238.40
2022-10-31T01:31:26.773Z,99235.00
2022-10-31T01:33:54.984Z,99232.00
2022-10-31T01:36:35.533Z,99231.60
2022-10-31T01:39:10.155Z,99225.20
2022-10-31T01:41:43.201Z,99231.40
2022-10-31T01:44:15.730Z,99231.40
2022-10-31T01:46:49.471Z,99226.80
2022-10-31T01:49:35.433Z,99224.80
2022-10-31T01:52:15.132Z,99227.20
2022-10-31T01:54:49.558Z,99225.80
2022-10-31T01:57:19.363Z,99224.40
2022-10-31T02:00:01.915Z,99229.40
2022-10-31T02:02:31.497Z,99223.40
2022-10-31T02:05:02.853Z,99225.60
2022-10-31T02:07:40.825Z,99229.20
2022-10-31T02:10:08.183Z,99221.60
2022-10-31T02:12:37.198Z,99223.20
2022-10-31T02:15:06.056Z,99225.40
2022-10-31T02:17:34.116Z,99222.00
2022-10-31T02:20:23.803Z,99221.80
2022-10-31T02:23:45.204Z,99221.00
2022-10-31T02:26:23.660Z,99225.40
2022-10-31T02:29:22.964Z,99225.00
2022-10-31T02:32:18.059Z,99227.40
2022-10-31T02:34:58.692Z,99232.60
2022-10-31T02:37:58.617Z,99233.00
2022-10-31T02:40:36.955Z,99232.00
2022-10-31T02:43:20.820Z,99236.20
2022-10-31T02:46:02.948Z,99236.00
2022-10-31T02:48:32.370Z,99237.60
2022-10-31T02:51:05.155Z,99235.80
2022-10-31T02:53:36.403Z,99232.80
2022-10-31T02:56:14.803Z,99242.20
2022-10-31T02:58:48.851Z,99238.60
2022-10-31T03:01:27.741Z,99240.40
2022-10-31T03:04:22.636Z,99240.40
2022-10-31T03:07:20.061Z,99243.80
2022-10-31T03:10:28.955Z,99247.40
2022-10-31T03:13:14.158Z,99252.00
2022-10-31T03:15:54.914Z,99248.80
2022-10-31T03:18:31.908Z,99251.20
2022-10-31T03:21:08.207Z,99250.80
2022-10-31T03:23:38.481Z,99246.00
2022-10-31T03:26:09.180Z,99244.20
2022-10-31T03:28:54.440Z,99237.60
2022-10-31T03:31:27.416Z,99240.40
2022-10-31T03:33:59.590Z,99238.80
2022-10-31T03:36:29.340Z,99242.60
2022-10-31T03:38:58.714Z,99248.60
2022-10-31T03:41:32.598Z,99247.00
2022-10-31T03:44:08.830Z,99241.40
2022-10-31T03:46:35.688Z,99244.60
2022-10-31T03:49:03.278Z,99252.60
2022-10-31T03:52:21.717Z,99252.00
2022-10-31T03:55:10.271Z,99257.20
2022-10-31T03:57:54.189Z,99259.20
2022-10-31T04:00:21.238Z,99265.60
2022-10-31T04:03:02.401Z,99268.40
2022-10-31T04:05:31.651Z,99272.60
2022-10-31T04:08:02.698Z,99273.80
2022-10-31T04:10:33.167Z,99274.00
2022-10-31T04:13:11.229Z,99273.80
2022-10-31T04:15:40.137Z,99270.40
2022-10-31T04:18:06.897Z,99276.60
2022-10-31T04:20:40.226Z,99276.80
2022-10-31T04:23:20.008Z,99277.20
2022-10-31T04:25:46.582Z,99276.00
2022-10-31T04:28:12.985Z,99272.60
2022-10-31T04:30:39.432Z,99271.80
2022-10-31T04:33:05.881Z,99272.60
2022-10-31T04:35:33.144Z,99277.00
2022-10-31T04:37:59.571Z,99273.20
2022-10-31T04:40:25.971Z,99282.40
2022-10-31T04:42:52.392Z,99278.20
2022-10-31T04:45:21.202Z,99273.20
2022-10-31T04:47:48.084Z,99276.40
2022-10-31T04:50:14.482Z,99272.00
2022-10-31T04:52:43.262Z,99275.40
2022-10-31T04:55:11.444Z,99274.00
2022-10-31T04:57:50.644Z,99273.00
2022-10-31T05:00:24.117Z,99274.20
2022-10-31T05:02:54.662Z,99272.20
2022-10-31T05:05:30.344Z,99270.40
2022-10-31T05:07:57.707Z,99270.80
2022-10-31T05:10:28.150Z,99272.20
2022-10-31T05:13:02.305Z,99271.80
2022-10-31T05:15:30.009Z,99274.40
2022-10-31T05:17:57.872Z,99276.20
2022-10-31T05:20:29.105Z,99283.00
2022-10-31T05:22:58.136Z,99282.00
2022-10-31T05:25:27.966Z,99278.00
2022-10-31T05:27:56.774Z,99282.40
2022-10-31T05:30:30.283Z,99282.60
2022-10-31T05:32:58.191Z,99284.00
2022-10-31T05:35:36.332Z,99285.60
2022-10-31T05:38:03.362Z,99288.20
2022-10-31T05:40:30.245Z,99291.60
2022-10-31T05:42:59.705Z,99292.80
2022-10-31T05:45:26.944Z,99290.60
2022-10-31T05:48:00.115Z,99290.20
2022-10-31T05:50:30.873Z,99293.60
2022-10-31T05:53:01.845Z,99292.00
2022-10-31T05:55:29.948Z,99286.80
2022-10-31T05:57:57.459Z,99283.00
2022-10-31T06:00:26.480Z,99285.60
2022-10-31T06:05:35.655Z,99291.40
2022-10-31T06:08:02.659Z,99294.40
2022-10-31T06:10:29.526Z,99290.20
2022-10-31T06:12:56.151Z,99295.60
2022-10-31T06:15:24.479Z,99291.60
2022-10-31T06:18:04.359Z,99292.60
2022-10-31T06:20:31.876Z,99296.80
2022-10-31T06:22:58.939Z,99292.80
2022-10-31T06:25:26.061Z,99292.60
2022-10-31T06:27:52.669Z,99293.00
2022-10-31T06:30:19.444Z,99290.80
2022-10-31T06:32:45.880Z,99295.80
2022-10-31T06:35:12.512Z,99298.60
2022-10-31T06:37:39.005Z,99311.00
2022-10-31T06:40:06.243Z,99310.60
2022-10-31T06:42:32.686Z,99314.40
2022-10-31T06:44:59.070Z,99309.80
2022-10-31T06:47:25.482Z,99311.80
2022-10-31T06:49:51.912Z,99313.20
2022-10-31T06:52:18.388Z,99316.00
2022-10-31T06:54:44.784Z,99317.20
2022-10-31T06:57:11.235Z,99322.60
2022-10-31T06:59:37.625Z,99319.40
2022-10-31T07:02:04.177Z,99322.00
2022-10-31T07:04:30.695Z,99326.20
2022-10-31T07:06:57.424Z,99328.40
2022-10-31T07:09:23.969Z,99328.00
2022-10-31T07:11:53.982Z,99336.60
2022-10-31T07:14:20.526Z,99338.80
2022-10-31T07:16:51.677Z,99344.00
2022-10-31T07:19:18.683Z,99351.80
2022-10-31T07:21:45.204Z,99356.80
2022-10-31T07:24:11.575Z,99358.00
2022-10-31T07:26:38.005Z,99358.80
2022-10-31T07:29:04.635Z,99358.20
2022-10-31T07:31:31.014Z,99362.60
2022-10-31T07:33:57.476Z,99367.20
2022-10-31T07:36:23.916Z,99365.20
2022-10-31T07:38:50.849Z,99363.00
2022-10-31T07:41:17.300Z,99357.80
2022-10-31T07:43:43.786Z,99363.60
2022-10-31T07:46:10.253Z,99363.40
2022-10-31T07:48:36.737Z,99367.60
2022-10-31T07:51:03.285Z,99360.20
2022-10-31T07:53:29.879Z,99361.00
2022-10-31T07:55:56.337Z,99360.00
2022-10-31T07:58:22.723Z,99366.20
2022-10-31T08:00:49.349Z,99369.00
2022-10-31T08:03:19.220Z,99366.40
2022-10-31T08:05:47.073Z,99364.20
2022-10-31T08:08:14.815Z,99367.20
2022-10-31T08:10:41.892Z,99367.20
2022-10-31T08:13:13.108Z,99367.60
2022-10-31T08:15:42.245Z,99368.40
2022-10-31T08:18:15.816Z,99369.60
2022-10-31T08:20:44.320Z,99370.60
2022-10-31T08:23:12.985Z,99376.80
2022-10-31T08:25:40.074Z,99370.20
2022-10-31T08:28:08.086Z,99368.60
2022-10-31T08:30:37.248Z,99369.80
2022-10-31T08:33:11.785Z,99366.60
2022-10-31T08:35:38.420Z,99372.80
2022-10-31T08:38:05.557Z,99374.40
2022-10-31T08:40:33.547Z,99372.00
2022-10-31T08:43:03.412Z,99375.20
2022-10-31T08:45:32.001Z,99372.00
2022-10-31T08:48:05.686Z,99376.20
2022-10-31T08:50:34.705Z,99378.40
2022-10-31T08:53:05.956Z,99378.80
2022-10-31T08:55:37.789Z,99374.60
2022-10-31T08:58:08.137Z,99376.00
2022-10-31T09:00:36.095Z,99374.60
2022-10-31T09:03:06.810Z,99377.60
2022-10-31T09:05:34.471Z,99382.00
2022-10-31T09:08:04.207Z,99376.80
2022-10-31T09:10:33.946Z,99381.60
2022-10-31T09:13:07.270Z,99377.20
2022-10-31T09:15:37.501Z,99379.20
2022-10-31T09:18:04.599Z,99384.00
2022-10-31T09:20:34.235Z,99384.00
2022-10-31T09:23:12.001Z,99386.80
2022-10-31T09:25:39.196Z,99389.60
2022-10-31T09:28:08.235Z,99392.60
2022-10-31T09:30:36.605Z,99392.80
2022-10-31T09:33:11.576Z,99394.80
2022-10-31T09:35:38.419Z,99397.00
2022-10-31T09:38:13.592Z,99398.60
2022-10-31T09:40:43.958Z,99400.60
2022-10-31T09:43:34.106Z,99398.40
2022-10-31T09:46:36.913Z,99397.20
2022-10-31T09:49:56.272Z,99396.00
2022-10-31T09:52:33.376Z,99398.80
2022-10-31T09:55:17.028Z,99402.60
2022-10-31T09:57:46.084Z,99402.80
2022-10-31T10:00:23.304Z,99399.60
2022-10-31T10:03:01.798Z,99401.00
2022-10-31T10:05:52.374Z,99402.00
2022-10-31T10:08:24.724Z,99400.80
2022-10-31T10:11:39.457Z,99399.80
2022-10-31T10:14:23.792Z,99398.00
2022-10-31T10:17:49.603Z,99401.80
2022-10-31T10:20:38.457Z,99402.20
2022-10-31T10:23:37.020Z,99401.60
2022-10-31T10:26:19.096Z,99404.80
2022-10-31T10:29:01.123Z,99400.40
2022-10-31T10:31:40.920Z,99398.80
2022-10-31T10:34:30.347Z,99401.20
2022-10-31T10:37:16.186Z,99397.60
2022-10-31T10:39:50.437Z,99393.80
2022-10-31T10:42:35.728Z,99398.20
2022-10-31T10:45:36.724Z,99388.20
2022-10-31T10:48:15.650Z,99387.20
2022-10-31T10:50:49.966Z,99385.80
2022-10-31T10:54:09.480Z,99386.00
2022-10-31T10:57:02.677Z,99387.80
2022-10-31T10:59:30.337Z,99387.20
2022-10-31T11:01:57.099Z,99385.80
2022-10-31T11:04:36.151Z,99384.40
2022-10-31T11:07:10.562Z,99391.40
2022-10-31T11:09:39.015Z,99386.00
2022-10-31T11:12:34.752Z,99386.60
2022-10-31T11:15:25.013Z,99390.20
2022-10-31T11:17:55.599Z,99386.00
2022-10-31T11:20:35.641Z,99386.00
2022-10-31T11:23:19.466Z,99390.80
2022-10-31T11:25:52.401Z,99391.60
2022-10-31T11:28:18.878Z,99392.40
2022-10-31T11:30:53.883Z,99390.40
2022-10-31T11:33:29.899Z,99392.40
2022-10-31T11:35:58.206Z,99391.20
2022-10-31T11:38:41.785Z,99387.20
2022-10-31T11:41:17.101Z,99389.40
2022-10-31T11:43:54.406Z,99386.40
2022-10-31T11:46:35.349Z,99386.40
2022-10-31T11:49:03.230Z,99383.60
2022-10-31T11:51:35.727Z,99385.20
2022-10-31T11:54:05.142Z,99388.00
2022-10-31T11:56:43.069Z,99386.80
2022-10-31T11:59:24.460Z,99382.20
2022-10-31T12:01:54.319Z,99378.00
2022-10-31T12:04:45.095Z,99382.00
2022-10-31T12:07:11.647Z,99382.40
2022-10-31T12:09:39.611Z,99383.60
2022-10-31T12:12:49.351Z,99383.60
2022-10-31T12:15:30.265Z,99385.40
2022-10-31T12:18:32.578Z,99385.40
2022-10-31T12:21:58.897Z,99384.60
2022-10-31T12:24:54.653Z,99376.40
2022-10-31T12:28:14.807Z,99370.00
2022-10-31T12:31:17.148Z,99367.80
2022-10-31T12:33:55.912Z,99360.60
2022-10-31T12:36:52.623Z,99364.20
2022-10-31T12:40:00.515Z,99364.20
2022-10-31T12:43:10.032Z,99363.60
2022-10-31T12:46:00.149Z,99363.40
2022-10-31T12:49:18.259Z,99360.40
2022-10-31T12:52:08.907Z,99367.80
2022-10-31T12:55:09.268Z,99365.40
2022-10-31T12:57:58.196Z,99357.80
2022-10-31T13:00:30.471Z,99362.20
2022-10-31T13:03:21.742Z,99361.20
2022-10-31T13:05:57.569Z,99359.60
2022-10-31T13:08:41.636Z,99362.60
2022-10-31T13:11:19.663Z,99362.60
2022-10-31T13:14:24.644Z,99361.80
2022-10-31T13:16:51.413Z,99360.40
2022-10-31T13:19:23.541Z,99363.00
2022-10-31T13:22:03.883Z,99360.80
2022-10-31T13:24:47.709Z,99362.60
2022-10-31T13:27:23.517Z,99365.00
2022-10-31T13:30:04.183Z,99364.40
2022-10-31T13:32:45.801Z,99364.40
2022-10-31T13:35:25.540Z,99360.80
2022-10-31T13:38:35.877Z,99360.80
2022-10-31T13:41:33.910Z,99362.60
2022-10-31T13:44:25.183Z,99362.40
2022-10-31T13:46:54.132Z,99371.20
2022-10-31T13:49:29.405Z,99368.00
2022-10-31T13:52:15.107Z,99364.80
2022-10-31T13:54:48.342Z,99366.40
2022-10-31T13:57:23.350Z,99365.60
2022-10-31T13:59:58.683Z,99374.20
2022-10-31T14:02:37.408Z,99372.80
2022-10-31T14:05:35.635Z,99373.40
2022-10-31T14:08:16.271Z,99375.80
2022-10-31T14:10:53.681Z,99375.80
2022-10-31T14:13:32.010Z,99370.00
2022-10-31T14:16:05.179Z,99371.20
2022-10-31T14:18:36.436Z,99372.00
2022-10-31T14:21:35.520Z,99368.20
2022-10-31T14:24:02.013Z,99370.40
2022-10-31T14:26:35.307Z,99370.60
2022-10-31T14:29:28.952Z,99367.20
2022-10-31T14:32:13.471Z,99372.60
2022-10-31T14:34:51.755Z,99370.60
2022-10-31T14:37:33.326Z,99372.80
2022-10-31T14:40:50.784Z,99374.20
2022-10-31T14:43:38.073Z,99375.40
2022-10-31T14:46:36.649Z,99371.80
2022-10-31T14:49:27.343Z,99373.80
2022-10-31T14:51:54.042Z,99367.40
2022-10-31T14:54:31.378Z,99364.40
2022-10-31T14:57:05.782Z,99362.60
2022-10-31T14:59:39.978Z,99365.00
2022-10-31T15:02:29.485Z,99363.60
2022-10-31T15:04:57.480Z,99367.60
2022-10-31T15:07:27.127Z,99367.40
2022-10-31T15:10:07.272Z,99364.00
2022-10-31T15:12:39.336Z,99366.60
2022-10-31T15:15:21.305Z,99359.60
2022-10-31T15:17:55.968Z,99359.00
2022-10-31T15:20:27.302Z,99352.60
2022-10-31T15:22:58.790Z,99350.20
2022-10-31T15:25:32.787Z,99355.00
2022-10-31T15:27:59.558Z,99352.40
2022-10-31T15:30:29.782Z,99355.20
2022-10-31T15:32:58.679Z,99356.80
2022-10-31T15:35:31.433Z,99361.60
2022-10-31T15:38:00.538Z,99360.00
2022-10-31T15:40:29.046Z,99363.60
2022-10-31T15:43:05.801Z,99364.60
2022-10-31T15:45:32.495Z,99364.20
2022-10-31T15:48:05.609Z,99364.00
2022-10-31T15:50:41.325Z,99368.00
2022-10-31T15:53:21.977Z,99367.20
2022-10-31T15:56:02.924Z,99371.60
2022-10-31T15:58:40.868Z,99367.60
2022-10-31T16:01:29.250Z,99366.80
2022-10-31T16:04:27.203Z,99370.00
2022-10-31T16:07:23.501Z,99372.20
2022-10-31T16:09:58.581Z,99373.40
2022-10-31T16:12:35.578Z,99373.80
2022-10-31T16:15:04.198Z,99374.40
2022-10-31T16:17:31.503Z,99378.20
2022-10-31T16:20:01.777Z,99374.80
2022-10-31T16:22:33.768Z,99376.40
2022-10-31T16:25:13.504Z,99374.80
2022-10-31T16:27:41.561Z,99376.20
2022-10-31T16:30:48.000Z,99378.60
2022-10-31T16:33:34.280Z,99374.80
2022-10-31T16:36:29.950Z,99372.20
2022-10-31T16:38:50.377Z,99372.40
2022-10-31T16:41:16.780Z,99372.60
2022-10-31T16:43:43.147Z,99374.40
2022-10-31T16:48:47.067Z,99381.40
2022-10-31T16:51:13.662Z,99381.80
2022-10-31T16:53:46.417Z,99383.80
2022-10-31T16:56:19.139Z,99389.80
2022-10-31T16:58:46.004Z,99392.20
2022-10-31T17:01:13.939Z,99392.20
2022-10-31T17:03:41.010Z,99385.40
2022-10-31T17:06:13.259Z,99384.60
2022-10-31T17:08:39.865Z,99381.40
2022-10-31T17:11:09.712Z,99383.80
2022-10-31T17:13:36.193Z,99386.00
2022-10-31T17:16:04.253Z,99386.60
2022-10-31T17:18:31.063Z,99389.60
2022-10-31T17:21:00.245Z,99387.60
2022-10-31T17:23:28.835Z,99392.80
2022-10-31T17:25:56.536Z,99388.00
2022-10-31T17:28:23.066Z,99384.00
2022-10-31T17:30:49.548Z,99388.20
2022-10-31T17:33:17.186Z,99386.20
2022-10-31T17:35:45.253Z,99387.00
2022-10-31T17:38:12.797Z,99389.60
2022-10-31T17:40:42.131Z,99391.80
2022-10-31T17:43:11.227Z,99390.80
2022-10-31T17:45:42.396Z,99391.00
2022-10-31T17:48:13.021Z,99394.40
2022-10-31T17:50:39.742Z,99397.60
2022-10-31T17:53:06.211Z,99396.00
2022-10-31T17:55:36.188Z,99396.40
2022-10-31T17:58:05.331Z,99396.60
2022-10-31T18:00:32.242Z,99398.80
2022-10-31T18:02:59.101Z,99397.60
2022-10-31T18:05:25.818Z,99396.20
2022-10-31T18:07:52.270Z,99396.60
2022-10-31T18:10:18.856Z,99390.60
2022-10-31T18:12:45.507Z,99397.80
2022-10-31T18:15:11.963Z,99386.60
2022-10-31T18:17:41.929Z,99388.20
2022-10-31T18:20:10.289Z,99394.00
2022-10-31T18:22:36.778Z,99393.40
2022-10-31T18:25:04.447Z,99391.40
2022-10-31T18:27:30.905Z,99389.20
2022-10-31T18:29:57.356Z,99380.60
2022-10-31T18:32:23.725Z,99380.80
2022-10-31T18:34:50.286Z,99384.00
2022-10-31T18:37:16.779Z,99383.40
2022-10-31T18:39:43.196Z,99386.00
2022-10-31T18:42:09.733Z,99384.20
2022-10-31T18:44:36.118Z,99386.40
2022-10-31T18:47:02.551Z,99384.80
2022-10-31T18:49:32.647Z,99388.20
2022-10-31T18:51:59.814Z,99387.80
2022-10-31T18:54:26.680Z,99389.20
2022-10-31T18:56:53.216Z,99383.60
2022-10-31T18:59:19.599Z,99390.40
2022-10-31T19:01:46.738Z,99390.20
2022-10-31T19:04:14.102Z,99389.00
2022-10-31T19:06:40.677Z,99384.00
2022-10-31T19:09:11.370Z,99383.40
2022-10-31T19:11:39.149Z,99376.40
2022-10-31T19:14:08.400Z,99374.60
2022-10-31T19:16:35.668Z,99384.20
2022-10-31T19:19:03.029Z,99387.00
2022-10-31T19:21:31.151Z,99386.20
2022-10-31T19:23:59.501Z,99383.60
2022-10-31T19:26:27.599Z,99386.40
2022-10-31T19:28:56.637Z,99382.00
2022-10-31T19:31:23.199Z,99378.00
2022-10-31T19:33:49.686Z,99374.00
2022-10-31T19:36:19.537Z,99373.60
2022-10-31T19:38:49.221Z,99371.80
2022-10-31T19:41:18.751Z,99376.60
2022-10-31T19:43:45.447Z,99371.00
2022-10-31T19:46:22.013Z,99368.80
2022-10-31T19:48:54.795Z,99373.80
2022-10-31T19:51:22.342Z,99371.00
2022-10-31T19:53:52.447Z,99370.80
2022-10-31T19:56:25.431Z,99371.00
2022-10-31T19:58:52.319Z,99372.40
2022-10-31T20:01:23.155Z,99370.00
2022-10-31T20:03:50.595Z,99372.60
2022-10-31T20:06:34.195Z,99369.00
2022-10-31T20:09:04.239Z,99368.20
2022-10-31T20:11:31.397Z,99362.60
2022-10-31T20:14:00.206Z,99358.60
2022-10-31T20:16:28.038Z,99354.80
2022-10-31T20:18:56.415Z,99353.20
2022-10-31T20:21:26.531Z,99348.60
2022-10-31T20:24:01.445Z,99351.80
2022-10-31T20:26:30.876Z,99354.20
2022-10-31T20:28:59.296Z,99353.80
2022-10-31T20:31:30.462Z,99352.60
2022-10-31T20:33:57.261Z,99349.40
2022-10-31T20:36:24.377Z,99349.20
2022-10-31T20:38:52.605Z,99348.40
2022-10-31T20:41:19.840Z,99348.00
2022-10-31T20:43:47.312Z,99347.20
2022-10-31T20:46:24.667Z,99344.00
2022-10-31T20:48:52.092Z,99341.00
2022-10-31T20:51:25.520Z,99336.80
2022-10-31T20:53:54.081Z,99337.40
2022-10-31T20:56:23.869Z,99333.60
2022-10-31T20:58:51.147Z,99338.20
2022-10-31T21:01:21.673Z,99333.80
2022-10-31T21:03:49.777Z,99333.40
2022-10-31T21:06:18.536Z,99333.20
2022-10-31T21:08:45.817Z,99330.60
2022-10-31T21:11:19.465Z,99329.80
2022-10-31T21:13:47.979Z,99329.40
2022-10-31T21:16:25.626Z,99329.80
2022-10-31T21:18:53.039Z,99332.40
2022-10-31T21:21:29.207Z,99330.40
2022-10-31T21:24:06.620Z,99327.00
2022-10-31T21:26:38.227Z,99328.80
2022-10-31T21:29:06.501Z,99324.40
2022-10-31T21:31:35.229Z,99326.00
2022-10-31T21:34:01.936Z,99325.00
2022-10-31T21:36:28.513Z,99327.20
2022-10-31T21:38:56.091Z,99320.20
2022-10-31T21:41:23.831Z,99318.20
2022-10-31T21:43:54.167Z,99315.80
2022-10-31T21:46:31.433Z,99314.60
2022-10-31T21:48:58.616Z,99315.40
2022-10-31T21:51:31.788Z,99315.00
2022-10-31T21:54:17.456Z,99311.80
2022-10-31T21:56:44.482Z,99307.40
2022-10-31T21:59:11.768Z,99311.60
